sensor_id;sensor_type;location;lat;lon;timestamp;temperature;humidity
18839;DHT22;9548;56.920;14.804;2023-05-10T00:00:42;7.00;99.90
18839;DHT22;9548;56.920;14.804;2023-05-10T00:03:09;7.00;99.90
18839;DHT22;9548;56.920;14.804;2023-05-10T00:05:36;7.00;99.90
18839;DHT22;9548;56.920;14.804;2023-05-10T00:08:03;7.00;99.90
18839;DHT22;9548;56.920;14.804;2023-05-10T00:10:31;7.00;99.90
18839;DHT22;9548;56.920;14.804;2023-05-10T00:12:58;7.00;99.90
18839;DHT22;9548;56.920;14.804;2023-05-10T00:15:25;7.00;99.90
18839;DHT22;9548;56.920;14.804;2023-05-10T00:17:52;7.00;99.90
18839;DHT22;9548;56.920;14.804;2023-05-10T00:20:19;6.90;99.90
18839;DHT22;9548;56.920;14.804;2023-05-10T00:22:46;6.90;99.90
18839;DHT22;9548;56.920;14.804;2023-05-10T00:25:13;6.90;99.90
18839;DHT22;9548;56.920;14.804;2023-05-10T00:27:41;6.90;99.90
18839;DHT22;9548;56.920;14.804;2023-05-10T00:30:09;6.80;99.90
18839;DHT22;9548;56.920;14.804;2023-05-10T00:32:36;6.80;99.90
18839;DHT22;9548;56.920;14.804;2023-05-10T00:35:03;6.80;99.90
18839;DHT22;9548;56.920;14.804;2023-05-10T00:37:30;6.70;99.90
18839;DHT22;9548;56.920;14.804;2023-05-10T00:39:57;6.70;99.90
18839;DHT22;9548;56.920;14.804;2023-05-10T00:42:24;6.70;99.90
18839;DHT22;9548;56.920;14.804;2023-05-10T00:44:53;6.60;99.90
18839;DHT22;9548;56.920;14.804;2023-05-10T00:47:20;6.60;99.90
18839;DHT22;9548;56.920;14.804;2023-05-10T00:49:47;6.50;99.90
18839;DHT22;9548;56.920;14.804;2023-05-10T00:52:14;6.50;99.90
18839;DHT22;9548;56.920;14.804;2023-05-10T00:54:41;6.50;99.90
18839;DHT22;9548;56.920;14.804;2023-05-10T00:57:08;6.50;99.90
18839;DHT22;9548;56.920;14.804;2023-05-10T00:59:35;6.50;99.90
18839;DHT22;9548;56.920;14.804;2023-05-10T01:02:04;6.50;99.90
18839;DHT22;9548;56.920;14.804;2023-05-10T01:04:31;6.40;99.90
18839;DHT22;9548;56.920;14.804;2023-05-10T01:06:59;6.40;99.90
18839;DHT22;9548;56.920;14.804;2023-05-10T01:09:26;6.40;99.90
18839;DHT22;9548;56.920;14.804;2023-05-10T01:11:54;6.40;99.90
18839;DHT22;9548;56.920;14.804;2023-05-10T01:14:21;6.50;99.90
18839;DHT22;9548;56.920;14.804;2023-05-10T01:16:49;6.50;99.90
18839;DHT22;9548;56.920;14.804;2023-05-10T01:19:21;6.50;99.90
18839;DHT22;9548;56.920;14.804;2023-05-10T01:21:53;6.60;99.90
18839;DHT22;9548;56.920;14.804;2023-05-10T01:24:46;6.60;99.90
18839;DHT22;9548;56.920;14.804;2023-05-10T01:27:42;6.60;99.90
18839;DHT22;9548;56.920;14.804;2023-05-10T01:33:16;6.60;99.90
18839;DHT22;9548;56.920;14.804;2023-05-10T01:35:51;6.60;99.90
18839;DHT22;9548;56.920;14.804;2023-05-10T01:38:25;6.60;99.90
18839;DHT22;9548;56.920;14.804;2023-05-10T01:41:01;6.50;99.90
18839;DHT22;9548;56.920;14.804;2023-05-10T01:43:38;6.50;99.90
18839;DHT22;9548;56.920;14.804;2023-05-10T01:46:09;6.40;99.90
18839;DHT22;9548;56.920;14.804;2023-05-10T01:48:40;6.40;99.90
18839;DHT22;9548;56.920;14.804;2023-05-10T01:51:12;6.30;99.90
18839;DHT22;9548;56.920;14.804;2023-05-10T01:53:40;6.30;99.90
18839;DHT22;9548;56.920;14.804;2023-05-10T01:56:09;6.30;99.90
18839;DHT22;9548;56.920;14.804;2023-05-10T01:58:39;6.30;99.90
18839;DHT22;9548;56.920;14.804;2023-05-10T02:01:08;6.40;99.90
18839;DHT22;9548;56.920;14.804;2023-05-10T02:03:38;6.40;99.90
18839;DHT22;9548;56.920;14.804;2023-05-10T02:06:06;6.40;99.90
18839;DHT22;9548;56.920;14.804;2023-05-10T02:08:33;6.40;99.90
18839;DHT22;9548;56.920;14.804;2023-05-10T02:11:02;6.40;99.90
18839;DHT22;9548;56.920;14.804;2023-05-10T02:13:32;6.40;99.90
18839;DHT22;9548;56.920;14.804;2023-05-10T02:16:01;6.40;99.90
18839;DHT22;9548;56.920;14.804;2023-05-10T02:18:30;6.40;99.90
18839;DHT22;9548;56.920;14.804;2023-05-10T02:21:00;6.40;99.90
18839;DHT22;9548;56.920;14.804;2023-05-10T02:23:28;6.40;99.90
18839;DHT22;9548;56.920;14.804;2023-05-10T02:25:56;6.40;99.90
18839;DHT22;9548;56.920;14.804;2023-05-10T02:28:24;6.40;99.90
18839;DHT22;9548;56.920;14.804;2023-05-10T02:30:52;6.50;99.90
18839;DHT22;9548;56.920;14.804;2023-05-10T02:33:20;6.50;99.90
18839;DHT22;9548;56.920;14.804;2023-05-10T02:35:48;6.40;99.90
18839;DHT22;9548;56.920;14.804;2023-05-10T02:38:19;6.40;99.90
18839;DHT22;9548;56.920;14.804;2023-05-10T02:40:47;6.40;99.90
18839;DHT22;9548;56.920;14.804;2023-05-10T02:43:16;6.40;99.90
18839;DHT22;9548;56.920;14.804;2023-05-10T02:45:47;6.50;99.90
18839;DHT22;9548;56.920;14.804;2023-05-10T02:48:15;6.50;99.90
18839;DHT22;9548;56.920;14.804;2023-05-10T02:50:44;6.50;99.90
18839;DHT22;9548;56.920;14.804;2023-05-10T02:53:18;6.50;99.90
18839;DHT22;9548;56.920;14.804;2023-05-10T02:55:50;6.50;99.90
18839;DHT22;9548;56.920;14.804;2023-05-10T02:58:18;6.50;99.90
18839;DHT22;9548;56.920;14.804;2023-05-10T03:00:46;6.50;99.90
18839;DHT22;9548;56.920;14.804;2023-05-10T03:03:13;6.50;99.90
18839;DHT22;9548;56.920;14.804;2023-05-10T03:05:40;6.50;99.90
18839;DHT22;9548;56.920;14.804;2023-05-10T03:08:07;6.50;99.90
18839;DHT22;9548;56.920;14.804;2023-05-10T03:10:44;6.60;99.90
18839;DHT22;9548;56.920;14.804;2023-05-10T03:13:21;6.50;99.90
18839;DHT22;9548;56.920;14.804;2023-05-10T03:16:06;6.50;99.90
18839;DHT22;9548;56.920;14.804;2023-05-10T03:18:41;6.60;99.90
18839;DHT22;9548;56.920;14.804;2023-05-10T03:21:11;6.60;99.90
18839;DHT22;9548;56.920;14.804;2023-05-10T03:23:42;6.60;99.90
18839;DHT22;9548;56.920;14.804;2023-05-10T03:26:17;6.60;99.90
18839;DHT22;9548;56.920;14.804;2023-05-10T03:28:44;6.70;99.90
18839;DHT22;9548;56.920;14.804;2023-05-10T03:31:12;6.70;99.90
18839;DHT22;9548;56.920;14.804;2023-05-10T03:33:46;6.70;99.90
18839;DHT22;9548;56.920;14.804;2023-05-10T03:36:13;6.80;99.90
18839;DHT22;9548;56.920;14.804;2023-05-10T03:38:40;6.80;99.90
18839;DHT22;9548;56.920;14.804;2023-05-10T03:41:07;6.80;99.90
18839;DHT22;9548;56.920;14.804;2023-05-10T03:43:35;6.90;99.90
18839;DHT22;9548;56.920;14.804;2023-05-10T03:46:02;6.90;99.90
18839;DHT22;9548;56.920;14.804;2023-05-10T03:48:29;7.00;99.90
18839;DHT22;9548;56.920;14.804;2023-05-10T03:50:56;7.00;99.90
18839;DHT22;9548;56.920;14.804;2023-05-10T03:53:23;7.10;99.90
18839;DHT22;9548;56.920;14.804;2023-05-10T03:55:50;7.20;99.90
18839;DHT22;9548;56.920;14.804;2023-05-10T03:58:17;7.30;99.90
18839;DHT22;9548;56.920;14.804;2023-05-10T04:00:46;7.30;99.90
18839;DHT22;9548;56.920;14.804;2023-05-10T04:03:13;7.40;99.90
18839;DHT22;9548;56.920;14.804;2023-05-10T04:05:40;7.50;99.90
18839;DHT22;9548;56.920;14.804;2023-05-10T04:08:07;7.60;99.90
18839;DHT22;9548;56.920;14.804;2023-05-10T04:10:34;7.60;99.90
18839;DHT22;9548;56.920;14.804;2023-05-10T04:13:01;7.70;99.90
18839;DHT22;9548;56.920;14.804;2023-05-10T04:15:28;7.80;99.90
18839;DHT22;9548;56.920;14.804;2023-05-10T04:17:56;7.80;99.90
18839;DHT22;9548;56.920;14.804;2023-05-10T04:20:23;7.90;99.90
18839;DHT22;9548;56.920;14.804;2023-05-10T04:22:50;7.90;99.90
18839;DHT22;9548;56.920;14.804;2023-05-10T04:25:16;8.00;99.90
18839;DHT22;9548;56.920;14.804;2023-05-10T04:27:43;8.00;99.90
18839;DHT22;9548;56.920;14.804;2023-05-10T04:30:11;8.10;99.90
18839;DHT22;9548;56.920;14.804;2023-05-10T04:32:38;8.20;99.90
18839;DHT22;9548;56.920;14.804;2023-05-10T04:35:06;8.20;99.90
18839;DHT22;9548;56.920;14.804;2023-05-10T04:37:34;8.30;99.90
18839;DHT22;9548;56.920;14.804;2023-05-10T04:40:02;8.40;99.90
18839;DHT22;9548;56.920;14.804;2023-05-10T04:42:29;8.40;99.90
18839;DHT22;9548;56.920;14.804;2023-05-10T04:44:58;8.50;99.90
18839;DHT22;9548;56.920;14.804;2023-05-10T04:47:25;8.60;99.90
18839;DHT22;9548;56.920;14.804;2023-05-10T04:49:52;8.70;99.90
18839;DHT22;9548;56.920;14.804;2023-05-10T04:52:20;8.80;99.90
18839;DHT22;9548;56.920;14.804;2023-05-10T04:54:47;8.90;99.90
18839;DHT22;9548;56.920;14.804;2023-05-10T04:57:13;8.90;99.90
18839;DHT22;9548;56.920;14.804;2023-05-10T04:59:40;9.00;99.90
18839;DHT22;9548;56.920;14.804;2023-05-10T05:02:08;9.10;99.90
18839;DHT22;9548;56.920;14.804;2023-05-10T05:04:34;9.20;99.90
18839;DHT22;9548;56.920;14.804;2023-05-10T05:07:01;9.30;99.90
18839;DHT22;9548;56.920;14.804;2023-05-10T05:09:30;9.40;99.90
18839;DHT22;9548;56.920;14.804;2023-05-10T05:11:57;9.50;99.90
18839;DHT22;9548;56.920;14.804;2023-05-10T05:14:24;9.60;99.90
18839;DHT22;9548;56.920;14.804;2023-05-10T05:16:51;9.70;99.90
18839;DHT22;9548;56.920;14.804;2023-05-10T05:19:18;9.80;99.90
18839;DHT22;9548;56.920;14.804;2023-05-10T05:21:45;10.00;99.90
18839;DHT22;9548;56.920;14.804;2023-05-10T05:24:12;10.10;99.90
18839;DHT22;9548;56.920;14.804;2023-05-10T05:26:40;10.30;99.90
18839;DHT22;9548;56.920;14.804;2023-05-10T05:29:07;10.40;99.90
18839;DHT22;9548;56.920;14.804;2023-05-10T05:31:34;10.50;99.90
18839;DHT22;9548;56.920;14.804;2023-05-10T05:34:01;10.60;99.90
18839;DHT22;9548;56.920;14.804;2023-05-10T05:36:28;10.70;99.90
18839;DHT22;9548;56.920;14.804;2023-05-10T05:38:56;10.80;99.90
18839;DHT22;9548;56.920;14.804;2023-05-10T05:41:23;10.90;99.90
18839;DHT22;9548;56.920;14.804;2023-05-10T05:43:51;11.00;99.90
18839;DHT22;9548;56.920;14.804;2023-05-10T05:46:18;11.00;99.90
18839;DHT22;9548;56.920;14.804;2023-05-10T05:48:45;11.10;99.90
18839;DHT22;9548;56.920;14.804;2023-05-10T05:51:12;11.20;99.90
18839;DHT22;9548;56.920;14.804;2023-05-10T05:53:39;11.30;99.90
18839;DHT22;9548;56.920;14.804;2023-05-10T05:56:06;11.40;99.90
18839;DHT22;9548;56.920;14.804;2023-05-10T05:58:33;11.50;99.90
18839;DHT22;9548;56.920;14.804;2023-05-10T06:01:01;11.60;99.90
18839;DHT22;9548;56.920;14.804;2023-05-10T06:03:28;11.70;99.90
18839;DHT22;9548;56.920;14.804;2023-05-10T06:05:55;11.70;99.90
18839;DHT22;9548;56.920;14.804;2023-05-10T06:08:22;11.90;99.90
18839;DHT22;9548;56.920;14.804;2023-05-10T06:10:49;12.00;99.90
18839;DHT22;9548;56.920;14.804;2023-05-10T06:13:16;12.10;99.90
18839;DHT22;9548;56.920;14.804;2023-05-10T06:15:43;12.20;99.80
18839;DHT22;9548;56.920;14.804;2023-05-10T06:18:12;12.30;99.10
18839;DHT22;9548;56.920;14.804;2023-05-10T06:20:40;12.40;98.70
18839;DHT22;9548;56.920;14.804;2023-05-10T06:23:07;12.50;98.60
18839;DHT22;9548;56.920;14.804;2023-05-10T06:25:34;12.60;98.70
18839;DHT22;9548;56.920;14.804;2023-05-10T06:28:01;12.70;97.70
18839;DHT22;9548;56.920;14.804;2023-05-10T06:30:28;12.80;96.70
18839;DHT22;9548;56.920;14.804;2023-05-10T06:32:55;12.90;96.30
18839;DHT22;9548;56.920;14.804;2023-05-10T06:35:23;12.90;96.50
18839;DHT22;9548;56.920;14.804;2023-05-10T06:37:50;13.00;96.20
18839;DHT22;9548;56.920;14.804;2023-05-10T06:40:18;13.20;95.70
18839;DHT22;9548;56.920;14.804;2023-05-10T06:42:45;13.30;94.90
18839;DHT22;9548;56.920;14.804;2023-05-10T06:45:12;13.40;94.60
18839;DHT22;9548;56.920;14.804;2023-05-10T06:47:39;13.50;94.70
18839;DHT22;9548;56.920;14.804;2023-05-10T06:50:07;13.60;93.80
18839;DHT22;9548;56.920;14.804;2023-05-10T06:52:35;13.70;92.90
18839;DHT22;9548;56.920;14.804;2023-05-10T06:55:03;13.70;92.70
18839;DHT22;9548;56.920;14.804;2023-05-10T06:57:30;13.80;92.50
18839;DHT22;9548;56.920;14.804;2023-05-10T06:59:58;13.80;91.80
18839;DHT22;9548;56.920;14.804;2023-05-10T07:02:25;13.90;91.30
18839;DHT22;9548;56.920;14.804;2023-05-10T07:04:52;14.00;91.40
18839;DHT22;9548;56.920;14.804;2023-05-10T07:07:19;14.10;91.40
18839;DHT22;9548;56.920;14.804;2023-05-10T07:09:47;14.10;91.20
18839;DHT22;9548;56.920;14.804;2023-05-10T07:12:15;14.30;90.70
18839;DHT22;9548;56.920;14.804;2023-05-10T07:14:42;14.30;90.80
18839;DHT22;9548;56.920;14.804;2023-05-10T07:17:09;14.40;90.30
18839;DHT22;9548;56.920;14.804;2023-05-10T07:19:36;14.50;90.40
18839;DHT22;9548;56.920;14.804;2023-05-10T07:22:03;14.60;89.10
18839;DHT22;9548;56.920;14.804;2023-05-10T07:24:30;14.70;88.70
18839;DHT22;9548;56.920;14.804;2023-05-10T07:26:59;14.80;88.10
18839;DHT22;9548;56.920;14.804;2023-05-10T07:29:26;14.90;87.10
18839;DHT22;9548;56.920;14.804;2023-05-10T07:31:54;14.80;87.10
18839;DHT22;9548;56.920;14.804;2023-05-10T07:34:21;14.80;86.70
18839;DHT22;9548;56.920;14.804;2023-05-10T07:36:47;14.80;86.70
18839;DHT22;9548;56.920;14.804;2023-05-10T07:39:14;15.00;85.60
18839;DHT22;9548;56.920;14.804;2023-05-10T07:41:42;15.00;86.20
18839;DHT22;9548;56.920;14.804;2023-05-10T07:44:10;15.10;85.90
18839;DHT22;9548;56.920;14.804;2023-05-10T07:46:37;15.10;83.10
18839;DHT22;9548;56.920;14.804;2023-05-10T07:49:04;15.10;83.50
18839;DHT22;9548;56.920;14.804;2023-05-10T07:51:31;15.10;84.00
18839;DHT22;9548;56.920;14.804;2023-05-10T07:53:58;15.10;82.50
18839;DHT22;9548;56.920;14.804;2023-05-10T07:56:26;15.20;81.60
18839;DHT22;9548;56.920;14.804;2023-05-10T07:58:55;15.30;79.70
18839;DHT22;9548;56.920;14.804;2023-05-10T08:01:24;15.40;79.70
18839;DHT22;9548;56.920;14.804;2023-05-10T08:03:51;15.40;79.10
18839;DHT22;9548;56.920;14.804;2023-05-10T08:06:19;15.40;78.20
18839;DHT22;9548;56.920;14.804;2023-05-10T08:08:47;15.50;77.00
18839;DHT22;9548;56.920;14.804;2023-05-10T08:11:15;15.50;77.10
18839;DHT22;9548;56.920;14.804;2023-05-10T08:13:42;15.50;75.40
18839;DHT22;9548;56.920;14.804;2023-05-10T08:16:09;15.50;75.60
18839;DHT22;9548;56.920;14.804;2023-05-10T08:18:38;15.50;75.80
18839;DHT22;9548;56.920;14.804;2023-05-10T08:21:05;15.60;75.40
18839;DHT22;9548;56.920;14.804;2023-05-10T08:23:32;15.60;74.40
18839;DHT22;9548;56.920;14.804;2023-05-10T08:26:00;15.70;75.30
18839;DHT22;9548;56.920;14.804;2023-05-10T08:28:26;15.80;73.70
18839;DHT22;9548;56.920;14.804;2023-05-10T08:30:53;15.80;74.20
18839;DHT22;9548;56.920;14.804;2023-05-10T08:33:20;15.90;72.90
18839;DHT22;9548;56.920;14.804;2023-05-10T08:35:49;15.90;73.50
18839;DHT22;9548;56.920;14.804;2023-05-10T08:38:15;16.00;73.00
18839;DHT22;9548;56.920;14.804;2023-05-10T08:40:43;16.10;71.70
18839;DHT22;9548;56.920;14.804;2023-05-10T08:43:12;16.20;72.20
18839;DHT22;9548;56.920;14.804;2023-05-10T08:45:41;16.30;72.10
18839;DHT22;9548;56.920;14.804;2023-05-10T08:48:09;16.30;70.80
18839;DHT22;9548;56.920;14.804;2023-05-10T08:50:37;16.30;72.40
18839;DHT22;9548;56.920;14.804;2023-05-10T08:53:09;16.50;71.60
18839;DHT22;9548;56.920;14.804;2023-05-10T08:55:36;16.40;70.60
18839;DHT22;9548;56.920;14.804;2023-05-10T08:58:04;16.50;69.80
18839;DHT22;9548;56.920;14.804;2023-05-10T09:00:32;16.70;70.50
18839;DHT22;9548;56.920;14.804;2023-05-10T09:03:00;16.70;69.80
18839;DHT22;9548;56.920;14.804;2023-05-10T09:05:27;16.90;68.50
18839;DHT22;9548;56.920;14.804;2023-05-10T09:07:55;17.00;67.90
18839;DHT22;9548;56.920;14.804;2023-05-10T09:10:23;17.10;68.60
18839;DHT22;9548;56.920;14.804;2023-05-10T09:12:53;17.00;66.90
18839;DHT22;9548;56.920;14.804;2023-05-10T09:15:22;17.00;67.40
18839;DHT22;9548;56.920;14.804;2023-05-10T09:17:49;17.20;68.90
18839;DHT22;9548;56.920;14.804;2023-05-10T09:20:16;17.60;67.40
18839;DHT22;9548;56.920;14.804;2023-05-10T09:22:44;17.70;64.80
18839;DHT22;9548;56.920;14.804;2023-05-10T09:25:12;17.80;64.70
18839;DHT22;9548;56.920;14.804;2023-05-10T09:27:43;18.00;63.60
18839;DHT22;9548;56.920;14.804;2023-05-10T09:30:15;18.30;62.40
18839;DHT22;9548;56.920;14.804;2023-05-10T09:32:43;18.40;60.40
18839;DHT22;9548;56.920;14.804;2023-05-10T09:35:11;18.30;61.50
18839;DHT22;9548;56.920;14.804;2023-05-10T09:37:39;18.40;59.60
18839;DHT22;9548;56.920;14.804;2023-05-10T09:40:11;18.20;58.70
18839;DHT22;9548;56.920;14.804;2023-05-10T09:42:38;18.40;60.60
18839;DHT22;9548;56.920;14.804;2023-05-10T09:45:07;18.40;60.00
18839;DHT22;9548;56.920;14.804;2023-05-10T09:47:35;18.30;60.20
18839;DHT22;9548;56.920;14.804;2023-05-10T09:50:03;18.50;59.30
18839;DHT22;9548;56.920;14.804;2023-05-10T09:52:31;18.80;59.10
18839;DHT22;9548;56.920;14.804;2023-05-10T09:55:12;19.10;58.50
18839;DHT22;9548;56.920;14.804;2023-05-10T09:57:39;18.90;58.50
18839;DHT22;9548;56.920;14.804;2023-05-10T10:00:09;18.80;59.10
18839;DHT22;9548;56.920;14.804;2023-05-10T10:02:36;19.40;58.60
18839;DHT22;9548;56.920;14.804;2023-05-10T10:05:03;19.40;57.40
18839;DHT22;9548;56.920;14.804;2023-05-10T10:07:33;19.50;58.40
18839;DHT22;9548;56.920;14.804;2023-05-10T10:10:00;20.20;57.60
18839;DHT22;9548;56.920;14.804;2023-05-10T10:12:28;20.50;54.80
18839;DHT22;9548;56.920;14.804;2023-05-10T10:14:55;20.40;54.60
18839;DHT22;9548;56.920;14.804;2023-05-10T10:17:25;20.60;55.30
18839;DHT22;9548;56.920;14.804;2023-05-10T10:19:54;20.90;54.10
18839;DHT22;9548;56.920;14.804;2023-05-10T10:22:22;20.50;53.90
18839;DHT22;9548;56.920;14.804;2023-05-10T10:24:50;20.90;53.50
18839;DHT22;9548;56.920;14.804;2023-05-10T10:27:23;21.10;53.40
18839;DHT22;9548;56.920;14.804;2023-05-10T10:30:03;21.50;53.40
18839;DHT22;9548;56.920;14.804;2023-05-10T10:32:37;21.30;52.10
18839;DHT22;9548;56.920;14.804;2023-05-10T10:35:09;21.00;53.00
18839;DHT22;9548;56.920;14.804;2023-05-10T10:37:46;21.40;53.30
18839;DHT22;9548;56.920;14.804;2023-05-10T10:40:24;21.40;52.30
18839;DHT22;9548;56.920;14.804;2023-05-10T10:42:52;21.30;51.10
18839;DHT22;9548;56.920;14.804;2023-05-10T10:45:20;21.30;52.20
18839;DHT22;9548;56.920;14.804;2023-05-10T10:47:50;21.40;50.60
18839;DHT22;9548;56.920;14.804;2023-05-10T10:50:20;21.90;50.30
18839;DHT22;9548;56.920;14.804;2023-05-10T10:52:47;22.60;51.00
18839;DHT22;9548;56.920;14.804;2023-05-10T10:55:17;22.60;49.30
18839;DHT22;9548;56.920;14.804;2023-05-10T10:57:46;22.30;49.80
18839;DHT22;9548;56.920;14.804;2023-05-10T11:00:25;22.40;48.40
18839;DHT22;9548;56.920;14.804;2023-05-10T11:02:57;22.20;49.70
18839;DHT22;9548;56.920;14.804;2023-05-10T11:05:41;22.20;49.60
18839;DHT22;9548;56.920;14.804;2023-05-10T11:08:11;22.80;49.30
18839;DHT22;9548;56.920;14.804;2023-05-10T11:10:39;22.60;48.10
18839;DHT22;9548;56.920;14.804;2023-05-10T11:13:08;22.60;47.50
18839;DHT22;9548;56.920;14.804;2023-05-10T11:15:36;22.40;48.00
18839;DHT22;9548;56.920;14.804;2023-05-10T11:18:29;22.50;48.70
18839;DHT22;9548;56.920;14.804;2023-05-10T11:20:57;22.50;47.60
18839;DHT22;9548;56.920;14.804;2023-05-10T11:23:30;22.40;47.80
18839;DHT22;9548;56.920;14.804;2023-05-10T11:25:57;22.60;47.90
18839;DHT22;9548;56.920;14.804;2023-05-10T11:28:24;23.30;46.10
18839;DHT22;9548;56.920;14.804;2023-05-10T11:30:52;23.40;46.30
18839;DHT22;9548;56.920;14.804;2023-05-10T11:33:20;23.50;46.60
18839;DHT22;9548;56.920;14.804;2023-05-10T11:35:48;23.80;46.30
18839;DHT22;9548;56.920;14.804;2023-05-10T11:38:15;24.10;44.70
18839;DHT22;9548;56.920;14.804;2023-05-10T11:40:42;23.90;44.40
18839;DHT22;9548;56.920;14.804;2023-05-10T11:43:09;23.70;44.30
18839;DHT22;9548;56.920;14.804;2023-05-10T11:45:37;23.70;44.30
18839;DHT22;9548;56.920;14.804;2023-05-10T11:48:04;23.70;44.70
18839;DHT22;9548;56.920;14.804;2023-05-10T11:50:32;23.40;44.70
18839;DHT22;9548;56.920;14.804;2023-05-10T11:53:00;23.10;45.10
18839;DHT22;9548;56.920;14.804;2023-05-10T11:55:27;23.40;44.30
18839;DHT22;9548;56.920;14.804;2023-05-10T11:58:00;23.90;44.20
18839;DHT22;9548;56.920;14.804;2023-05-10T12:00:28;24.00;43.20
18839;DHT22;9548;56.920;14.804;2023-05-10T12:02:55;23.70;44.30
18839;DHT22;9548;56.920;14.804;2023-05-10T12:05:22;24.40;44.60
18839;DHT22;9548;56.920;14.804;2023-05-10T12:07:49;24.40;42.80
18839;DHT22;9548;56.920;14.804;2023-05-10T12:10:25;24.50;42.80
18839;DHT22;9548;56.920;14.804;2023-05-10T12:12:53;24.60;43.40
18839;DHT22;9548;56.920;14.804;2023-05-10T12:15:21;24.90;43.40
18839;DHT22;9548;56.920;14.804;2023-05-10T12:17:51;25.40;43.40
18839;DHT22;9548;56.920;14.804;2023-05-10T12:20:19;25.30;42.70
18839;DHT22;9548;56.920;14.804;2023-05-10T12:22:49;25.40;41.40
18839;DHT22;9548;56.920;14.804;2023-05-10T12:25:18;25.10;40.80
18839;DHT22;9548;56.920;14.804;2023-05-10T12:27:49;24.60;41.70
18839;DHT22;9548;56.920;14.804;2023-05-10T12:30:21;25.10;42.10
18839;DHT22;9548;56.920;14.804;2023-05-10T12:32:48;25.20;41.20
18839;DHT22;9548;56.920;14.804;2023-05-10T12:35:16;25.60;41.30
18839;DHT22;9548;56.920;14.804;2023-05-10T12:37:46;25.70;41.00
18839;DHT22;9548;56.920;14.804;2023-05-10T12:40:13;26.30;40.80
18839;DHT22;9548;56.920;14.804;2023-05-10T12:42:41;26.70;39.80
18839;DHT22;9548;56.920;14.804;2023-05-10T12:45:11;25.80;40.20
18839;DHT22;9548;56.920;14.804;2023-05-10T12:47:38;25.90;40.20
18839;DHT22;9548;56.920;14.804;2023-05-10T12:50:06;25.80;40.70
18839;DHT22;9548;56.920;14.804;2023-05-10T12:52:33;26.60;40.60
18839;DHT22;9548;56.920;14.804;2023-05-10T12:55:00;26.70;40.10
18839;DHT22;9548;56.920;14.804;2023-05-10T12:57:27;26.00;40.50
18839;DHT22;9548;56.920;14.804;2023-05-10T12:59:56;26.50;40.20
18839;DHT22;9548;56.920;14.804;2023-05-10T13:02:23;27.10;39.50
18839;DHT22;9548;56.920;14.804;2023-05-10T13:04:50;27.40;39.40
18839;DHT22;9548;56.920;14.804;2023-05-10T13:07:17;27.40;39.20
18839;DHT22;9548;56.920;14.804;2023-05-10T13:09:44;27.00;40.30
18839;DHT22;9548;56.920;14.804;2023-05-10T13:12:11;26.60;40.70
18839;DHT22;9548;56.920;14.804;2023-05-10T13:14:38;27.00;40.40
18839;DHT22;9548;56.920;14.804;2023-05-10T13:17:07;26.80;40.30
18839;DHT22;9548;56.920;14.804;2023-05-10T13:19:34;26.70;41.00
18839;DHT22;9548;56.920;14.804;2023-05-10T13:22:02;26.90;40.80
18839;DHT22;9548;56.920;14.804;2023-05-10T13:24:29;27.00;41.80
18839;DHT22;9548;56.920;14.804;2023-05-10T13:26:56;27.90;40.80
18839;DHT22;9548;56.920;14.804;2023-05-10T13:29:23;27.90;40.20
18839;DHT22;9548;56.920;14.804;2023-05-10T13:31:50;28.10;41.10
18839;DHT22;9548;56.920;14.804;2023-05-10T13:34:18;28.00;40.90
18839;DHT22;9548;56.920;14.804;2023-05-10T13:36:47;28.50;40.20
18839;DHT22;9548;56.920;14.804;2023-05-10T13:39:14;28.70;41.00
18839;DHT22;9548;56.920;14.804;2023-05-10T13:41:41;28.50;39.90
18839;DHT22;9548;56.920;14.804;2023-05-10T13:44:08;28.40;40.00
18839;DHT22;9548;56.920;14.804;2023-05-10T13:46:35;28.50;39.80
18839;DHT22;9548;56.920;14.804;2023-05-10T13:49:03;28.00;39.70
18839;DHT22;9548;56.920;14.804;2023-05-10T13:51:31;27.70;40.30
18839;DHT22;9548;56.920;14.804;2023-05-10T13:53:58;28.00;40.40
18839;DHT22;9548;56.920;14.804;2023-05-10T13:56:25;28.20;41.00
18839;DHT22;9548;56.920;14.804;2023-05-10T13:58:52;28.30;40.30
18839;DHT22;9548;56.920;14.804;2023-05-10T14:01:19;29.00;39.70
18839;DHT22;9548;56.920;14.804;2023-05-10T14:03:46;29.00;39.60
18839;DHT22;9548;56.920;14.804;2023-05-10T14:06:13;28.40;39.80
18839;DHT22;9548;56.920;14.804;2023-05-10T14:08:42;29.00;40.40
18839;DHT22;9548;56.920;14.804;2023-05-10T14:11:09;29.80;39.60
18839;DHT22;9548;56.920;14.804;2023-05-10T14:13:35;29.00;39.10
18839;DHT22;9548;56.920;14.804;2023-05-10T14:16:03;29.40;39.30
18839;DHT22;9548;56.920;14.804;2023-05-10T14:18:30;29.20;39.30
18839;DHT22;9548;56.920;14.804;2023-05-10T14:20:56;28.50;39.70
18839;DHT22;9548;56.920;14.804;2023-05-10T14:23:23;29.10;40.00
18839;DHT22;9548;56.920;14.804;2023-05-10T14:25:52;30.30;39.30
18839;DHT22;9548;56.920;14.804;2023-05-10T14:28:19;30.90;39.20
18839;DHT22;9548;56.920;14.804;2023-05-10T14:30:48;29.90;38.90
18839;DHT22;9548;56.920;14.804;2023-05-10T14:33:16;30.00;39.20
18839;DHT22;9548;56.920;14.804;2023-05-10T14:35:44;29.40;39.00
18839;DHT22;9548;56.920;14.804;2023-05-10T14:38:11;29.60;39.20
18839;DHT22;9548;56.920;14.804;2023-05-10T14:40:38;28.80;39.80
18839;DHT22;9548;56.920;14.804;2023-05-10T14:43:06;28.50;39.80
18839;DHT22;9548;56.920;14.804;2023-05-10T14:45:33;28.40;40.70
18839;DHT22;9548;56.920;14.804;2023-05-10T14:48:00;29.00;40.10
18839;DHT22;9548;56.920;14.804;2023-05-10T14:50:30;28.20;40.60
18839;DHT22;9548;56.920;14.804;2023-05-10T14:52:57;27.80;41.00
18839;DHT22;9548;56.920;14.804;2023-05-10T14:55:24;27.60;41.50
18839;DHT22;9548;56.920;14.804;2023-05-10T14:57:51;28.40;40.70
18839;DHT22;9548;56.920;14.804;2023-05-10T15:00:20;28.90;39.70
18839;DHT22;9548;56.920;14.804;2023-05-10T15:02:47;28.90;39.80
18839;DHT22;9548;56.920;14.804;2023-05-10T15:05:15;29.10;39.60
18839;DHT22;9548;56.920;14.804;2023-05-10T15:07:41;29.90;39.50
18839;DHT22;9548;56.920;14.804;2023-05-10T15:10:09;29.60;39.90
18839;DHT22;9548;56.920;14.804;2023-05-10T15:12:37;29.70;39.80
18839;DHT22;9548;56.920;14.804;2023-05-10T15:15:06;29.20;40.10
18839;DHT22;9548;56.920;14.804;2023-05-10T15:17:35;29.10;40.60
18839;DHT22;9548;56.920;14.804;2023-05-10T15:20:02;29.00;40.20
18839;DHT22;9548;56.920;14.804;2023-05-10T15:22:30;28.90;40.70
18839;DHT22;9548;56.920;14.804;2023-05-10T15:24:57;29.20;40.30
18839;DHT22;9548;56.920;14.804;2023-05-10T15:27:24;29.60;40.30
18839;DHT22;9548;56.920;14.804;2023-05-10T15:29:51;29.10;40.20
18839;DHT22;9548;56.920;14.804;2023-05-10T15:32:18;29.40;40.50
18839;DHT22;9548;56.920;14.804;2023-05-10T15:34:47;29.30;39.70
18839;DHT22;9548;56.920;14.804;2023-05-10T15:37:14;28.50;40.50
18839;DHT22;9548;56.920;14.804;2023-05-10T15:39:40;28.70;40.80
18839;DHT22;9548;56.920;14.804;2023-05-10T15:42:07;28.20;40.80
18839;DHT22;9548;56.920;14.804;2023-05-10T15:44:34;27.40;41.80